createdAt,value
2023-02-19T00:00:14.164Z,2.60
2023-02-19T00:02:45.372Z,2.80
2023-02-19T00:05:14.020Z,2.30
2023-02-19T00:07:43.885Z,2.63
2023-02-19T00:10:12.918Z,2.47
2023-02-19T00:12:42.886Z,2.80
2023-02-19T00:15:13.521Z,2.43
2023-02-19T00:17:42.340Z,2.30
2023-02-19T00:20:11.189Z,2.00
2023-02-19T00:22:40.498Z,1.87
2023-02-19T00:25:08.941Z,1.93
2023-02-19T00:27:37.392Z,2.10
2023-02-19T00:30:07.940Z,2.40
2023-02-19T00:32:37.735Z,2.43
2023-02-19T00:35:07.800Z,2.10
2023-02-19T00:37:38.527Z,2.23
2023-02-19T00:40:07.243Z,2.50
2023-02-19T00:42:38.948Z,2.30
2023-02-19T00:45:09.435Z,2.07
2023-02-19T00:47:47.144Z,2.20
2023-02-19T00:50:15.637Z,2.30
2023-02-19T00:52:45.717Z,2.10
2023-02-19T00:55:14.492Z,2.60
2023-02-19T00:57:43.880Z,2.87
2023-02-19T01:00:18.388Z,2.40
2023-02-19T01:02:47.198Z,2.97
2023-02-19T01:05:15.389Z,2.70
2023-02-19T01:07:45.198Z,3.13
2023-02-19T01:10:19.292Z,2.80
2023-02-19T01:12:49.318Z,2.80
2023-02-19T01:15:22.078Z,2.80
2023-02-19T01:17:51.019Z,2.97
2023-02-19T01:20:20.630Z,3.10
2023-02-19T01:22:50.149Z,3.40
2023-02-19T01:25:18.507Z,3.10
2023-02-19T01:27:48.687Z,3.57
2023-02-19T01:30:19.945Z,3.20
2023-02-19T01:32:50.080Z,3.47
2023-02-19T01:35:20.132Z,3.47
2023-02-19T01:37:51.005Z,3.20
2023-02-19T01:40:20.338Z,3.10
2023-02-19T01:42:50.315Z,3.27
2023-02-19T01:45:25.277Z,3.27
2023-02-19T01:48:09.645Z,3.10
2023-02-19T01:50:42.202Z,3.13
2023-02-19T01:53:14.633Z,3.27
2023-02-19T01:55:43.576Z,3.50
2023-02-19T01:58:12.296Z,3.27
2023-02-19T02:00:41.682Z,3.40
2023-02-19T02:03:11.085Z,3.90
2023-02-19T02:05:46.404Z,3.90
2023-02-19T02:08:32.881Z,3.43
2023-02-19T02:11:05.003Z,3.40
2023-02-19T02:13:42.464Z,3.60
2023-02-19T02:16:21.903Z,3.83
2023-02-19T02:18:57.974Z,3.70
2023-02-19T02:21:49.645Z,4.37
2023-02-19T02:24:36.272Z,4.60
2023-02-19T02:27:21.273Z,4.27
2023-02-19T02:30:07.712Z,4.60
2023-02-19T02:32:40.593Z,5.20
2023-02-19T02:35:10.933Z,5.07
2023-02-19T02:37:42.938Z,5.50
2023-02-19T02:40:13.123Z,5.03
2023-02-19T02:42:42.731Z,5.00
2023-02-19T02:45:38.914Z,5.00
2023-02-19T02:48:34.710Z,5.07
2023-02-19T02:51:08.257Z,5.17
2023-02-19T02:54:05.511Z,4.77
2023-02-19T02:56:37.010Z,4.00
2023-02-19T02:59:11.545Z,3.77
2023-02-19T03:02:01.564Z,3.90
2023-02-19T03:04:33.779Z,4.23
2023-02-19T03:07:13.113Z,3.97
2023-02-19T03:15:10.420Z,4.13
2023-02-19T03:18:00.797Z,4.27
2023-02-19T03:20:29.676Z,4.30
2023-02-19T03:23:01.482Z,4.40
2023-02-19T03:25:51.257Z,4.33
2023-02-19T03:28:44.711Z,4.40
2023-02-19T03:31:15.092Z,4.93
2023-02-19T03:33:44.987Z,5.47
2023-02-19T03:36:15.601Z,5.30
2023-02-19T03:38:52.160Z,5.40
2023-02-19T03:41:35.503Z,5.27
2023-02-19T03:44:13.883Z,5.60
2023-02-19T03:46:47.185Z,4.40
2023-02-19T03:49:23.951Z,4.60
2023-02-19T03:51:56.046Z,3.77
2023-02-19T03:54:30.636Z,3.30
2023-02-19T03:57:04.767Z,2.80
2023-02-19T03:59:37.003Z,2.47
2023-02-19T04:02:15.790Z,2.63
2023-02-19T04:04:47.398Z,2.83
2023-02-19T04:07:15.747Z,2.97
2023-02-19T04:09:49.048Z,3.10
2023-02-19T04:12:22.024Z,3.57
2023-02-19T04:14:55.579Z,3.60
2023-02-19T04:17:32.759Z,3.50
2023-02-19T04:20:05.388Z,3.50
2023-02-19T04:22:33.573Z,3.50
2023-02-19T04:25:04.030Z,3.37
2023-02-19T04:27:32.788Z,3.60
2023-02-19T04:30:01.625Z,4.03
2023-02-19T04:32:31.125Z,3.43
2023-02-19T04:35:01.241Z,3.03
2023-02-19T04:37:34.380Z,3.40
2023-02-19T04:40:02.497Z,3.17
2023-02-19T04:42:32.417Z,3.17
2023-02-19T04:45:02.955Z,2.90
2023-02-19T04:47:35.924Z,3.10
2023-02-19T04:50:04.405Z,2.77
2023-02-19T04:52:37.602Z,2.70
2023-02-19T04:55:10.509Z,2.50
2023-02-19T04:57:39.097Z,2.83
2023-02-19T05:00:11.821Z,2.70
2023-02-19T05:02:40.089Z,2.40
2023-02-19T05:05:11.425Z,3.10
2023-02-19T05:07:41.086Z,2.70
2023-02-19T05:10:13.116Z,2.70
2023-02-19T05:12:44.720Z,2.83
2023-02-19T05:15:13.295Z,3.00
2023-02-19T05:17:41.309Z,3.30
2023-02-19T05:20:10.327Z,2.97
2023-02-19T05:22:42.867Z,2.87
2023-02-19T05:25:12.684Z,3.07
2023-02-19T05:27:43.752Z,3.37
2023-02-19T05:30:14.959Z,3.43
2023-02-19T05:32:42.992Z,3.00
2023-02-19T05:35:11.426Z,2.93
2023-02-19T05:37:42.357Z,3.07
2023-02-19T05:40:13.250Z,3.10
2023-02-19T05:42:43.643Z,3.30
2023-02-19T05:45:12.675Z,3.37
2023-02-19T05:47:41.681Z,2.90
2023-02-19T05:50:09.643Z,3.00
2023-02-19T05:52:40.143Z,3.23
2023-02-19T05:55:09.592Z,3.17
2023-02-19T05:57:43.549Z,2.70
2023-02-19T06:00:13.884Z,2.83
2023-02-19T06:02:42.268Z,2.93
2023-02-19T06:05:10.991Z,3.50
2023-02-19T06:07:43.390Z,3.07
2023-02-19T06:10:12.638Z,3.30
2023-02-19T06:12:40.945Z,3.20
2023-02-19T06:15:09.860Z,3.13
2023-02-19T06:17:38.396Z,3.50
2023-02-19T06:20:07.280Z,2.83
2023-02-19T06:22:35.679Z,2.70
2023-02-19T06:25:07.899Z,2.97
2023-02-19T06:27:37.966Z,3.00
2023-02-19T06:30:06.626Z,2.70
2023-02-19T06:32:35.392Z,2.83
2023-02-19T06:35:03.765Z,2.50
2023-02-19T06:37:32.415Z,2.93
2023-02-19T06:40:02.811Z,2.77
2023-02-19T06:42:34.160Z,2.70
2023-02-19T06:45:04.370Z,2.87
2023-02-19T06:47:32.929Z,2.60
2023-02-19T06:50:01.970Z,2.60
2023-02-19T06:52:31.002Z,2.40
2023-02-19T06:55:01.711Z,2.40
2023-02-19T06:57:31.205Z,2.63
2023-02-19T07:00:00.656Z,2.13
2023-02-19T07:02:30.686Z,2.40
2023-02-19T07:04:58.561Z,2.13
2023-02-19T07:07:28.672Z,1.80
2023-02-19T07:09:57.377Z,2.33
2023-02-19T07:12:26.068Z,2.40
2023-02-19T07:14:55.131Z,2.17
2023-02-19T07:17:24.369Z,2.70
2023-02-19T07:19:52.814Z,2.03
2023-02-19T07:22:21.582Z,2.20
2023-02-19T07:24:49.768Z,2.80
2023-02-19T07:27:17.791Z,2.53
2023-02-19T07:29:46.386Z,2.40
2023-02-19T07:32:14.362Z,2.40
2023-02-19T07:34:44.273Z,2.20
2023-02-19T07:37:12.705Z,2.30
2023-02-19T07:39:40.898Z,2.00
2023-02-19T07:42:09.340Z,2.17
2023-02-19T07:44:39.887Z,2.20
2023-02-19T07:47:08.467Z,2.13
2023-02-19T07:49:36.549Z,2.70
2023-02-19T07:52:08.873Z,2.53
2023-02-19T07:54:37.426Z,2.43
2023-02-19T07:57:05.659Z,2.17
2023-02-19T07:59:33.895Z,2.40
2023-02-19T08:02:20.722Z,2.27
2023-02-19T08:04:51.384Z,2.20
2023-02-19T08:07:21.054Z,1.73
2023-02-19T08:10:09.914Z,2.17
2023-02-19T08:12:55.400Z,2.40
2023-02-19T08:15:26.114Z,2.57
2023-02-19T08:17:54.791Z,1.90
2023-02-19T08:20:24.089Z,2.10
2023-02-19T08:22:55.268Z,2.23
2023-02-19T08:25:23.523Z,2.37
2023-02-19T08:27:51.751Z,2.10
2023-02-19T08:30:19.910Z,1.97
2023-02-19T08:32:49.127Z,2.30
2023-02-19T08:35:20.762Z,2.43
2023-02-19T08:37:48.909Z,2.17
2023-02-19T08:40:19.050Z,2.00
2023-02-19T08:42:47.172Z,2.07
2023-02-19T08:45:16.420Z,2.10
2023-02-19T08:47:45.784Z,2.07
2023-02-19T08:50:14.335Z,2.20
2023-02-19T08:52:43.526Z,2.00
2023-02-19T08:55:12.994Z,2.33
2023-02-19T08:57:42.891Z,2.13
2023-02-19T09:00:14.013Z,2.63
2023-02-19T09:02:42.244Z,1.70
2023-02-19T09:05:13.483Z,2.13
2023-02-19T09:07:42.248Z,2.70
2023-02-19T09:10:11.928Z,2.50
2023-02-19T09:12:40.648Z,1.90
2023-02-19T09:15:10.351Z,2.47
2023-02-19T09:17:40.528Z,2.60
2023-02-19T09:20:10.999Z,2.00
2023-02-19T09:22:39.127Z,2.77
2023-02-19T09:25:16.399Z,2.10
2023-02-19T09:27:45.512Z,1.93
2023-02-19T09:30:20.289Z,2.30
2023-02-19T09:32:49.960Z,2.37
2023-02-19T09:35:21.671Z,2.10
2023-02-19T09:37:52.417Z,2.60
2023-02-19T09:40:26.534Z,2.60
2023-02-19T09:42:56.692Z,2.10
2023-02-19T09:45:29.225Z,2.50
2023-02-19T09:47:59.613Z,2.20
2023-02-19T09:50:38.797Z,2.00
2023-02-19T09:53:15.106Z,2.10
2023-02-19T09:55:44.858Z,2.20
2023-02-19T09:58:27.394Z,2.07
2023-02-19T10:00:58.266Z,1.87
2023-02-19T10:03:31.877Z,2.43
2023-02-19T10:06:03.713Z,1.80
2023-02-19T10:08:34.081Z,1.80
2023-02-19T10:11:04.067Z,2.20
2023-02-19T10:13:37.617Z,2.20
2023-02-19T10:16:11.177Z,2.17
2023-02-19T10:18:42.178Z,1.93
2023-02-19T10:21:15.854Z,2.03
2023-02-19T10:23:45.244Z,1.80
2023-02-19T10:26:14.129Z,2.00
2023-02-19T10:28:43.298Z,2.20
2023-02-19T10:31:21.386Z,1.57
2023-02-19T10:33:54.979Z,1.83
2023-02-19T10:36:29.855Z,2.23
2023-02-19T10:39:01.430Z,2.20
2023-02-19T10:41:30.611Z,1.80
2023-02-19T10:44:05.330Z,2.20
2023-02-19T10:46:38.008Z,1.83
2023-02-19T10:49:09.044Z,2.17
2023-02-19T10:51:40.035Z,2.20
2023-02-19T10:54:19.103Z,1.60
2023-02-19T10:56:49.379Z,2.13
2023-02-19T10:59:25.518Z,1.83
2023-02-19T11:02:02.534Z,1.87
2023-02-19T11:04:38.186Z,1.80
2023-02-19T11:07:18.994Z,1.80
2023-02-19T11:09:54.664Z,2.30
2023-02-19T11:12:31.931Z,1.97
2023-02-19T11:15:09.400Z,1.70
2023-02-19T11:17:40.118Z,1.90
2023-02-19T11:20:14.587Z,1.87
2023-02-19T11:22:49.313Z,1.80
2023-02-19T11:25:21.601Z,1.77
2023-02-19T11:27:57.766Z,2.30
2023-02-19T11:30:39.890Z,1.70
2023-02-19T11:33:27.293Z,1.80
2023-02-19T11:36:01.741Z,1.90
2023-02-19T11:38:29.883Z,1.80
2023-02-19T11:41:06.076Z,1.90
2023-02-19T11:43:47.796Z,2.00
2023-02-19T11:46:23.840Z,2.10
2023-02-19T11:48:56.457Z,1.77
2023-02-19T11:51:34.419Z,2.17
2023-02-19T11:54:17.236Z,1.80
2023-02-19T11:56:47.956Z,1.80
2023-02-19T11:59:24.290Z,1.73
2023-02-19T12:02:05.210Z,1.50
2023-02-19T12:05:10.378Z,1.70
2023-02-19T12:08:04.247Z,2.63
2023-02-19T12:10:38.271Z,1.40
2023-02-19T12:13:15.594Z,1.70
2023-02-19T12:16:06.926Z,1.43
2023-02-19T12:19:05.045Z,2.10
2023-02-19T12:21:50.785Z,1.90
2023-02-19T12:24:37.178Z,1.63
2023-02-19T12:27:18.309Z,1.40
2023-02-19T12:29:57.000Z,2.60
2023-02-19T12:32:43.549Z,1.80
2023-02-19T12:35:32.314Z,1.80
2023-02-19T12:38:08.804Z,1.90
2023-02-19T12:40:54.874Z,2.03
2023-02-19T12:43:25.172Z,2.30
2023-02-19T12:45:57.834Z,1.67
2023-02-19T12:48:33.237Z,2.00
2023-02-19T12:51:07.301Z,2.13
2023-02-19T12:53:43.625Z,1.80
2023-02-19T12:56:17.612Z,1.60
2023-02-19T12:58:49.730Z,1.50
2023-02-19T13:01:24.940Z,2.27
2023-02-19T13:04:19.004Z,1.53
2023-02-19T13:06:53.519Z,2.13
2023-02-19T13:09:29.309Z,1.80
2023-02-19T13:12:00.593Z,1.83
2023-02-19T13:14:31.774Z,1.90
2023-02-19T13:17:02.779Z,1.50
2023-02-19T13:19:32.302Z,1.33
2023-02-19T13:22:34.176Z,2.60
2023-02-19T13:25:07.362Z,1.77
2023-02-19T13:28:06.876Z,1.60
2023-02-19T13:30:47.395Z,1.57
2023-02-19T13:33:26.952Z,1.70
2023-02-19T13:36:08.466Z,1.80
2023-02-19T13:38:46.589Z,1.80
2023-02-19T13:41:22.814Z,2.40
2023-02-19T13:43:57.229Z,1.70
2023-02-19T13:46:28.337Z,1.70
2023-02-19T13:49:31.248Z,1.50
2023-02-19T13:52:04.031Z,1.73
2023-02-19T13:54:33.768Z,1.60
2023-02-19T13:57:36.825Z,1.47
2023-02-19T14:00:43.282Z,1.47
2023-02-19T14:03:30.863Z,1.30
2023-02-19T14:06:06.021Z,1.60
2023-02-19T14:08:57.219Z,1.53
2023-02-19T14:12:05.287Z,1.57
2023-02-19T14:14:38.750Z,1.50
2023-02-19T14:17:39.012Z,2.10
2023-02-19T14:20:42.458Z,1.40
2023-02-19T14:23:17.171Z,1.47
2023-02-19T14:25:52.678Z,1.33
2023-02-19T14:28:53.166Z,1.47
2023-02-19T14:31:32.368Z,1.00
2023-02-19T14:34:05.966Z,1.70
2023-02-19T14:36:44.198Z,1.37
2023-02-19T14:39:19.646Z,1.50
2023-02-19T14:41:50.928Z,1.60
2023-02-19T14:44:23.196Z,1.47
2023-02-19T14:46:59.695Z,1.13
2023-02-19T14:49:32.231Z,1.90
2023-02-19T14:52:05.277Z,1.50
2023-02-19T14:54:39.167Z,2.53
2023-02-19T14:57:14.239Z,1.60
2023-02-19T14:59:53.364Z,1.53
2023-02-19T15:02:25.998Z,1.50
2023-02-19T15:04:54.839Z,1.67
2023-02-19T15:07:29.802Z,1.87
2023-02-19T15:10:04.938Z,2.23
2023-02-19T15:12:38.422Z,2.00
2023-02-19T15:15:09.310Z,1.70
2023-02-19T15:17:44.727Z,1.83
2023-02-19T15:20:20.491Z,1.70
2023-02-19T15:22:49.460Z,1.60
2023-02-19T15:25:20.741Z,1.83
2023-02-19T15:27:53.262Z,1.50
2023-02-19T15:30:24.647Z,1.40
2023-02-19T15:32:59.823Z,1.80
2023-02-19T15:35:30.423Z,1.43
2023-02-19T15:37:58.817Z,1.70
2023-02-19T15:40:30.996Z,1.57
2023-02-19T15:43:00.633Z,1.70
2023-02-19T15:45:32.727Z,1.43
2023-02-19T15:48:05.983Z,2.00
2023-02-19T15:50:35.806Z,1.47
2023-02-19T15:53:07.176Z,1.70
2023-02-19T15:55:37.704Z,1.50
2023-02-19T15:58:10.272Z,1.50
2023-02-19T16:00:43.605Z,1.30
2023-02-19T16:03:19.877Z,1.43
2023-02-19T16:06:00.616Z,1.77
2023-02-19T16:08:31.729Z,1.50
2023-02-19T16:11:02.736Z,1.43
2023-02-19T16:13:34.445Z,2.10
2023-02-19T16:16:16.072Z,2.03
2023-02-19T16:18:50.209Z,1.47
2023-02-19T16:21:22.843Z,1.77
2023-02-19T16:23:54.550Z,2.10
2023-02-19T16:26:25.283Z,1.80
2023-02-19T16:28:54.642Z,2.00
2023-02-19T16:31:26.601Z,2.07
2023-02-19T16:34:18.257Z,1.67
2023-02-19T16:36:51.718Z,2.30
2023-02-19T16:39:25.708Z,1.57
2023-02-19T16:42:19.489Z,1.80
2023-02-19T16:44:51.497Z,1.90
2023-02-19T16:47:39.687Z,2.03
2023-02-19T16:50:17.133Z,2.33
2023-02-19T16:52:55.338Z,2.10
2023-02-19T16:55:24.184Z,2.07
2023-02-19T16:57:52.114Z,2.60
2023-02-19T17:00:23.029Z,2.50
2023-02-19T17:02:55.231Z,2.40
2023-02-19T17:05:28.873Z,3.00
2023-02-19T17:07:58.949Z,2.10
2023-02-19T17:10:29.481Z,2.60
2023-02-19T17:12:59.241Z,2.17
2023-02-19T17:15:30.311Z,2.10
2023-02-19T17:18:00.776Z,2.43
2023-02-19T17:20:31.838Z,1.93
2023-02-19T17:23:00.829Z,2.33
2023-02-19T17:25:29.568Z,2.20
2023-02-19T17:27:59.585Z,2.20
2023-02-19T17:30:31.049Z,2.00
2023-02-19T17:33:03.243Z,2.30
2023-02-19T17:35:32.746Z,2.17
2023-02-19T17:38:00.720Z,2.30
2023-02-19T17:40:33.424Z,2.43
2023-02-19T17:43:03.059Z,2.93
2023-02-19T17:45:32.398Z,3.00
2023-02-19T17:48:01.110Z,2.37
2023-02-19T17:50:30.589Z,2.73
2023-02-19T17:53:00.031Z,2.13
2023-02-19T17:55:28.461Z,2.93
2023-02-19T17:57:56.424Z,4.40
2023-02-19T18:00:29.238Z,2.40
2023-02-19T18:02:59.882Z,3.70
2023-02-19T18:05:29.340Z,2.70
2023-02-19T18:07:57.724Z,2.40
2023-02-19T18:10:27.286Z,6.43
2023-02-19T18:12:55.449Z,2.80
2023-02-19T18:15:27.374Z,3.00
2023-02-19T18:18:00.118Z,2.80
2023-02-19T18:20:31.260Z,4.73
2023-02-19T18:23:00.191Z,3.20
2023-02-19T18:25:29.636Z,3.37
2023-02-19T18:28:00.333Z,2.37
2023-02-19T18:30:30.149Z,2.30
2023-02-19T18:32:58.714Z,2.10
2023-02-19T18:35:27.466Z,2.80
2023-02-19T18:37:56.385Z,2.30
2023-02-19T18:40:26.548Z,2.90
2023-02-19T18:42:56.887Z,3.00
2023-02-19T18:45:24.824Z,3.27
2023-02-19T18:47:54.726Z,4.80
2023-02-19T18:50:22.701Z,2.60
2023-02-19T18:52:50.580Z,2.40
2023-02-19T18:55:19.690Z,3.17
2023-02-19T18:57:49.933Z,3.03
2023-02-19T19:00:22.663Z,4.33
2023-02-19T19:02:54.138Z,3.90
2023-02-19T19:05:23.163Z,2.87
2023-02-19T19:07:53.459Z,3.53
2023-02-19T19:10:21.736Z,3.20
2023-02-19T19:12:51.265Z,4.20
2023-02-19T19:15:22.199Z,3.33
2023-02-19T19:17:51.840Z,4.50
2023-02-19T19:20:23.768Z,5.63
2023-02-19T19:22:52.509Z,2.80
2023-02-19T19:25:23.276Z,2.73
2023-02-19T19:27:52.468Z,2.67
2023-02-19T19:30:24.162Z,2.57
2023-02-19T19:32:52.743Z,2.67
2023-02-19T19:35:21.822Z,3.00
2023-02-19T19:37:49.938Z,13.37
2023-02-19T19:40:18.412Z,2.90
2023-02-19T19:42:48.362Z,3.30
2023-02-19T19:45:17.271Z,3.40
2023-02-19T19:47:48.662Z,3.93
2023-02-19T19:50:18.225Z,3.37
2023-02-19T19:52:46.744Z,3.17
2023-02-19T19:55:16.038Z,2.77
2023-02-19T19:57:45.564Z,2.70
2023-02-19T20:00:17.907Z,2.03
2023-02-19T20:02:49.475Z,3.47
2023-02-19T20:05:19.420Z,2.40
2023-02-19T20:07:49.540Z,3.13
2023-02-19T20:10:20.451Z,2.40
2023-02-19T20:12:50.351Z,2.57
2023-02-19T20:15:21.945Z,3.40
2023-02-19T20:17:56.672Z,2.77
2023-02-19T20:20:24.698Z,3.00
2023-02-19T20:22:54.789Z,3.13
2023-02-19T20:25:24.037Z,2.67
2023-02-19T20:27:53.782Z,2.63
2023-02-19T20:30:23.688Z,2.87
2023-02-19T20:32:53.417Z,3.03
2023-02-19T20:35:22.156Z,3.90
2023-02-19T20:37:50.057Z,2.70
2023-02-19T20:40:20.765Z,3.40
2023-02-19T20:42:50.519Z,3.07
2023-02-19T20:45:18.920Z,3.03
2023-02-19T20:47:48.924Z,3.73
2023-02-19T20:50:20.261Z,3.40
2023-02-19T20:52:49.233Z,3.40
2023-02-19T20:55:18.132Z,3.27
2023-02-19T20:57:47.788Z,3.23
2023-02-19T21:00:17.058Z,2.90
2023-02-19T21:02:45.763Z,3.40
2023-02-19T21:05:14.310Z,2.57
2023-02-19T21:07:45.044Z,3.20
2023-02-19T21:10:14.889Z,3.17
2023-02-19T21:12:44.508Z,2.63
2023-02-19T21:15:14.792Z,3.33
2023-02-19T21:17:47.148Z,2.50
2023-02-19T21:20:17.838Z,3.10
2023-02-19T21:22:47.414Z,2.40
2023-02-19T21:25:17.000Z,3.17
2023-02-19T21:27:45.604Z,3.10
2023-02-19T21:30:14.161Z,2.60
2023-02-19T21:32:42.373Z,3.27
2023-02-19T21:35:11.481Z,3.43
2023-02-19T21:37:43.071Z,3.23
2023-02-19T21:40:17.189Z,3.30
2023-02-19T21:42:47.191Z,4.50
2023-02-19T21:45:18.434Z,3.43
2023-02-19T21:47:47.932Z,4.20
2023-02-19T21:50:17.286Z,3.53
2023-02-19T21:52:45.523Z,3.10
2023-02-19T21:55:17.108Z,3.10
2023-02-19T21:57:45.090Z,2.90
2023-02-19T22:00:17.955Z,3.30
2023-02-19T22:02:48.180Z,2.80
2023-02-19T22:05:18.841Z,3.07
2023-02-19T22:07:50.037Z,3.30
2023-02-19T22:10:23.963Z,2.83
2023-02-19T22:12:52.073Z,2.77
2023-02-19T22:15:20.445Z,3.23
2023-02-19T22:17:50.583Z,3.33
2023-02-19T22:20:19.911Z,3.07
2023-02-19T22:22:49.801Z,3.20
2023-02-19T22:25:18.208Z,3.40
2023-02-19T22:27:48.804Z,3.13
2023-02-19T22:30:17.362Z,3.40
2023-02-19T22:32:46.672Z,3.33
2023-02-19T22:35:16.007Z,3.30
2023-02-19T22:37:44.660Z,3.80
2023-02-19T22:40:14.888Z,3.70
2023-02-19T22:42:45.397Z,3.67
2023-02-19T22:45:15.822Z,4.00
2023-02-19T22:47:44.649Z,3.73
2023-02-19T22:50:18.851Z,3.27
2023-02-19T22:52:49.131Z,3.30
2023-02-19T22:55:17.897Z,3.50
2023-02-19T22:57:46.220Z,3.97
2023-02-19T23:00:22.577Z,3.63
2023-02-19T23:02:51.804Z,3.10
2023-02-19T23:05:22.769Z,2.70
2023-02-19T23:07:52.356Z,2.80
2023-02-19T23:10:21.306Z,3.17
2023-02-19T23:12:52.160Z,2.80
2023-02-19T23:15:25.498Z,2.80
2023-02-19T23:17:54.971Z,2.70
2023-02-19T23:20:23.222Z,2.70
2023-02-19T23:22:51.485Z,2.87
2023-02-19T23:25:19.496Z,2.97
2023-02-19T23:27:50.945Z,2.80
2023-02-19T23:30:23.678Z,3.07
2023-02-19T23:32:52.019Z,2.93
2023-02-19T23:35:22.007Z,2.90
2023-02-19T23:37:49.915Z,3.27
2023-02-19T23:40:18.885Z,3.37
2023-02-19T23:42:47.821Z,3.13
2023-02-19T23:45:18.363Z,3.20
2023-02-19T23:47:49.431Z,3.37
2023-02-19T23:50:18.580Z,3.13
2023-02-19T23:52:46.794Z,3.63
2023-02-19T23:55:15.715Z,3.67
2023-02-19T23:57:46.904Z,3.37
